Artemis — SWZE — position and weather

sailwx.info

Track history (hours):
 
Tides and Currents Weather Stations Pressure Air Temp Water Temp Dewpoint Dewpoint Depression Visibility Wind Speed Wind Dir Waves Ship Positions

Artemis

Last reported at 2015-Jan-30 08:33 UTC. Time now 2015-Feb-01 14:46 UTC.
Position N 37°57' E 023°38'.

Length 89 m; draft 3.1 m.

Type: Passenger vessel. MMSI: 237026300.

Date/timePositionNaut miles runAvg speedWind from/ knotsBaromVisibWave heightAir tempDewpointWater temp
2015-Jan-30 08:33N 37°57' E 023°38'0 0.0
2015-Jan-30 07:33N 37°57' E 023°38'0 0.0
2015-Jan-30 06:33N 37°57' E 023°38'0 0.0
2015-Jan-30 05:33N 37°57' E 023°38'0 0.0
2015-Jan-30 04:33N 37°57' E 023°38'0 0.0
2015-Jan-30 03:33N 37°57' E 023°38'0 0.0
2015-Jan-30 02:33N 37°57' E 023°38'0 0.0
2015-Jan-30 01:33N 37°57' E 023°38'0 0.0
2015-Jan-30 00:33N 37°57' E 023°38'0 0.0
2015-Jan-29 23:33N 37°57' E 023°38'1 0.9
2015-Jan-29 22:34N 37°56' E 023°37'1413.8
2015-Jan-29 21:33N 37°43' E 023°43'19 3.5
2015-Jan-29 16:06N 37°37' E 024°06'41 8.4
2015-Jan-29 11:15N 37°29' E 024°57'3 3.9
2015-Jan-29 10:32N 37°26' E 024°56'1010.6
2015-Jan-29 09:33N 37°18' E 024°49'1 0.1
2015-Jan-28 13:33N 37°18' E 024°51'9 9.0
2015-Jan-28 12:30N 37°27' E 024°57'0 0.0
2015-Jan-28 11:33N 37°27' E 024°57'4 4.2
2015-Jan-28 10:34N 37°28' E 025°01'6 6.4
2015-Jan-28 09:33N 37°35' E 025°04'8 2.7
2015-Jan-28 06:30N 37°40' E 024°56'1314.0
2015-Jan-28 05:33N 37°32' E 025°09'1211.1
2015-Jan-28 04:30N 37°27' E 024°57'0 0.0
2015-Jan-28 03:32N 37°27' E 024°57'0 0.0
2015-Jan-28 02:30N 37°27' E 024°57'0 0.0
2015-Jan-28 01:33N 37°27' E 024°57'0 0.0
2015-Jan-28 00:31N 37°27' E 024°57'0 0.0
2015-Jan-27 23:32N 37°27' E 024°57'0 0.0
2015-Jan-27 22:33N 37°27' E 024°57'0 0.0
2015-Jan-27 21:32N 37°27' E 024°57'0 0.0
2015-Jan-27 20:32N 37°27' E 024°57'0 0.0
2015-Jan-27 19:33N 37°27' E 024°57'1212.3
2015-Jan-27 18:32N 37°15' E 025°03'1110.8
2015-Jan-27 17:33N 37°05' E 025°07'1514.3
2015-Jan-27 16:28N 37°07' E 024°48'9 1.0
2015-Jan-27 07:33N 37°06' E 024°59'6 5.9
2015-Jan-27 06:33N 37°08' E 025°06'1514.6
2015-Jan-27 05:33N 37°21' E 025°00'6 5.0
2015-Jan-27 04:25N 37°27' E 024°57'0 0.0
2015-Jan-27 03:33N 37°27' E 024°57'0 0.0
2015-Jan-27 02:16N 37°27' E 024°57'0 0.0
2015-Jan-27 01:32N 37°27' E 024°57'0 0.0
2015-Jan-27 00:33N 37°27' E 024°57'0 0.0
2015-Jan-26 23:33N 37°27' E 024°57'0 0.0
2015-Jan-26 22:33N 37°27' E 024°57'0 0.0
2015-Jan-26 21:27N 37°27' E 024°57'1 0.7
2015-Jan-26 20:33N 37°27' E 024°57'12 0.8
2015-Jan-26 06:10N 37°31' E 024°44'1014.0
2015-Jan-26 05:26N 37°30' E 024°57'3 3.1
2015-Jan-26 04:25N 37°26' E 024°56'0 0.0
2015-Jan-26 03:31N 37°26' E 024°56'0 0.0
2015-Jan-26 02:31N 37°26' E 024°56'0 0.0
2015-Jan-26 01:32N 37°26' E 024°56'0 0.0
2015-Jan-26 00:32N 37°26' E 024°56'0 0.0
2015-Jan-25 23:33N 37°26' E 024°56'0 0.0
2015-Jan-25 22:33N 37°26' E 024°56'0 0.0
2015-Jan-25 21:31N 37°26' E 024°56'6 6.0
2015-Jan-25 20:33N 37°21' E 024°58'1111.0
2015-Jan-25 19:33N 37°11' E 025°03'5 4.6
2015-Jan-25 18:33N 37°06' E 025°05'7 0.7
2015-Jan-25 08:31N 37°06' E 024°56'9 9.6
2015-Jan-25 07:33N 37°05' E 025°08'1414.1
2015-Jan-25 06:33N 37°18' E 025°01'9 9.2
2015-Jan-25 05:33N 37°27' E 024°57'0 0.0
2015-Jan-25 04:27N 37°27' E 024°57'0 0.0
2015-Jan-25 03:32N 37°27' E 024°57'0 0.0
2015-Jan-25 02:31N 37°27' E 024°57'0 0.0
2015-Jan-25 01:22N 37°27' E 024°57'0 0.0
2015-Jan-25 00:33N 37°27' E 024°57'0 0.0
2015-Jan-24 23:33N 37°27' E 024°57'0 0.0
2015-Jan-24 22:33N 37°27' E 024°57'0 0.0
2015-Jan-24 21:32N 37°27' E 024°57'0 0.0
2015-Jan-24 20:32N 37°27' E 024°57'0 0.0
2015-Jan-24 19:33N 37°27' E 024°57'0 0.0
2015-Jan-24 18:31N 37°27' E 024°57'0 0.0
2015-Jan-24 17:33N 37°27' E 024°57'0 0.0
2015-Jan-24 16:30N 37°27' E 024°57'0 0.0
2015-Jan-24 15:33N 37°27' E 024°57'1110.8
2015-Jan-24 14:34N 37°17' E 024°51'1414.3
2015-Jan-24 13:33N 37°07' E 025°05'6 6.4
2015-Jan-24 12:33N 37°09' E 025°13'8 7.8
2015-Jan-24 11:33N 37°06' E 025°22'2811.5
2015-Jan-24 09:08N 36°40' E 025°10'8 9.5
2015-Jan-24 08:16N 36°37' E 025°01'3 0.2
2015-Jan-23 18:06N 36°37' E 024°57'5 9.4
2015-Jan-23 17:33N 36°37' E 025°04'23 9.3
2015-Jan-23 15:05N 36°58' E 025°17'712.8
2015-Jan-23 14:33N 37°04' E 025°19'6 6.3
2015-Jan-23 13:33N 37°10' E 025°15'7 7.3
2015-Jan-23 12:33N 37°07' E 025°06'1414.0
2015-Jan-23 11:33N 37°20' E 025°01'9 8.7
2015-Jan-23 10:33N 37°29' E 024°57'32 7.3
2015-Jan-23 06:08N 37°40' E 024°19'12 1.2
2015-Jan-22 20:06N 37°43' E 024°04'39 4.6
2015-Jan-22 11:33N 37°31' E 024°51'6 6.1
2015-Jan-22 10:33N 37°26' E 024°57'9 8.7
2015-Jan-22 09:33N 37°19' E 024°52'2 0.1
2015-Jan-21 13:33N 37°17' E 024°50'1110.2
2015-Jan-21 12:31N 37°27' E 024°57'0 0.0
2015-Jan-21 11:33N 37°27' E 024°57'6 6.1
2015-Jan-21 10:33N 37°30' E 025°03'6 6.3
2015-Jan-21 09:33N 37°36' E 025°02'7 2.2
2015-Jan-21 06:33N 37°40' E 024°56'1313.1
2015-Jan-21 05:33N 37°32' E 025°09'1211.7
2015-Jan-21 04:33N 37°27' E 024°57'0 0.0
2015-Jan-21 03:32N 37°27' E 024°57'0 0.0
2015-Jan-21 02:27N 37°27' E 024°57'0 0.0
2015-Jan-21 01:32N 37°27' E 024°57'0 0.0
2015-Jan-21 00:31N 37°27' E 024°57'0 0.0
2015-Jan-20 23:33N 37°27' E 024°57'0 0.0
2015-Jan-20 22:33N 37°27' E 024°57'0 0.0
2015-Jan-20 21:33N 37°27' E 024°57'0 0.0
2015-Jan-20 20:31N 37°27' E 024°57'4 4.1
2015-Jan-20 19:31N 37°23' E 024°59'1614.9
2015-Jan-20 18:26N 37°08' E 025°06'4 4.5
2015-Jan-20 17:33N 37°07' E 025°02'  
Track history (hours):
 
Tides and Currents Weather Stations Pressure Air Temp Water Temp Dewpoint Dewpoint Depression Visibility Wind Speed Wind Dir Waves Ship Positions

Artemis

Last reported at 2015-Jan-30 08:33 UTC. Time now 2015-Feb-01 14:46 UTC.
Position N 37°57' E 023°38'.

Length 89 m; draft 3.1 m.

Type: Passenger vessel. MMSI: 237026300.

Date/timePositionNaut miles runAvg speedWind from/ knotsBaromVisibWave heightAir tempDewpointWater temp
2015-Jan-30 08:33N 37°57' E 023°38'0 0.0
2015-Jan-30 07:33N 37°57' E 023°38'0 0.0
2015-Jan-30 06:33N 37°57' E 023°38'0 0.0
2015-Jan-30 05:33N 37°57' E 023°38'0 0.0
2015-Jan-30 04:33N 37°57' E 023°38'0 0.0
2015-Jan-30 03:33N 37°57' E 023°38'0 0.0
2015-Jan-30 02:33N 37°57' E 023°38'0 0.0
2015-Jan-30 01:33N 37°57' E 023°38'0 0.0
2015-Jan-30 00:33N 37°57' E 023°38'0 0.0
2015-Jan-29 23:33N 37°57' E 023°38'1 0.9
2015-Jan-29 22:34N 37°56' E 023°37'1413.8
2015-Jan-29 21:33N 37°43' E 023°43'19 3.5
2015-Jan-29 16:06N 37°37' E 024°06'41 8.4
2015-Jan-29 11:15N 37°29' E 024°57'3 3.9
2015-Jan-29 10:32N 37°26' E 024°56'1010.6
2015-Jan-29 09:33N 37°18' E 024°49'1 0.1
2015-Jan-28 13:33N 37°18' E 024°51'9 9.0
2015-Jan-28 12:30N 37°27' E 024°57'0 0.0
2015-Jan-28 11:33N 37°27' E 024°57'4 4.2
2015-Jan-28 10:34N 37°28' E 025°01'6 6.4
2015-Jan-28 09:33N 37°35' E 025°04'8 2.7
2015-Jan-28 06:30N 37°40' E 024°56'1314.0
2015-Jan-28 05:33N 37°32' E 025°09'1211.1
2015-Jan-28 04:30N 37°27' E 024°57'0 0.0
2015-Jan-28 03:32N 37°27' E 024°57'0 0.0
2015-Jan-28 02:30N 37°27' E 024°57'0 0.0
2015-Jan-28 01:33N 37°27' E 024°57'0 0.0
2015-Jan-28 00:31N 37°27' E 024°57'0 0.0
2015-Jan-27 23:32N 37°27' E 024°57'0 0.0
2015-Jan-27 22:33N 37°27' E 024°57'0 0.0
2015-Jan-27 21:32N 37°27' E 024°57'0 0.0
2015-Jan-27 20:32N 37°27' E 024°57'0 0.0
2015-Jan-27 19:33N 37°27' E 024°57'1212.3
2015-Jan-27 18:32N 37°15' E 025°03'1110.8
2015-Jan-27 17:33N 37°05' E 025°07'1514.3
2015-Jan-27 16:28N 37°07' E 024°48'9 1.0
2015-Jan-27 07:33N 37°06' E 024°59'6 5.9
2015-Jan-27 06:33N 37°08' E 025°06'1514.6
2015-Jan-27 05:33N 37°21' E 025°00'6 5.0
2015-Jan-27 04:25N 37°27' E 024°57'0 0.0
2015-Jan-27 03:33N 37°27' E 024°57'0 0.0
2015-Jan-27 02:16N 37°27' E 024°57'0 0.0
2015-Jan-27 01:32N 37°27' E 024°57'0 0.0
2015-Jan-27 00:33N 37°27' E 024°57'0 0.0
2015-Jan-26 23:33N 37°27' E 024°57'0 0.0
2015-Jan-26 22:33N 37°27' E 024°57'0 0.0
2015-Jan-26 21:27N 37°27' E 024°57'1 0.7
2015-Jan-26 20:33N 37°27' E 024°57'12 0.8
2015-Jan-26 06:10N 37°31' E 024°44'1014.0
2015-Jan-26 05:26N 37°30' E 024°57'3 3.1
2015-Jan-26 04:25N 37°26' E 024°56'0 0.0
2015-Jan-26 03:31N 37°26' E 024°56'0 0.0
2015-Jan-26 02:31N 37°26' E 024°56'0 0.0
2015-Jan-26 01:32N 37°26' E 024°56'0 0.0
2015-Jan-26 00:32N 37°26' E 024°56'0 0.0
2015-Jan-25 23:33N 37°26' E 024°56'0 0.0
2015-Jan-25 22:33N 37°26' E 024°56'0 0.0
2015-Jan-25 21:31N 37°26' E 024°56'6 6.0
2015-Jan-25 20:33N 37°21' E 024°58'1111.0
2015-Jan-25 19:33N 37°11' E 025°03'5 4.6
2015-Jan-25 18:33N 37°06' E 025°05'7 0.7
2015-Jan-25 08:31N 37°06' E 024°56'9 9.6
2015-Jan-25 07:33N 37°05' E 025°08'1414.1
2015-Jan-25 06:33N 37°18' E 025°01'9 9.2
2015-Jan-25 05:33N 37°27' E 024°57'0 0.0
2015-Jan-25 04:27N 37°27' E 024°57'0 0.0
2015-Jan-25 03:32N 37°27' E 024°57'0 0.0
2015-Jan-25 02:31N 37°27' E 024°57'0 0.0
2015-Jan-25 01:22N 37°27' E 024°57'0 0.0
2015-Jan-25 00:33N 37°27' E 024°57'0 0.0
2015-Jan-24 23:33N 37°27' E 024°57'0 0.0
2015-Jan-24 22:33N 37°27' E 024°57'0 0.0
2015-Jan-24 21:32N 37°27' E 024°57'0 0.0
2015-Jan-24 20:32N 37°27' E 024°57'0 0.0
2015-Jan-24 19:33N 37°27' E 024°57'0 0.0
2015-Jan-24 18:31N 37°27' E 024°57'0 0.0
2015-Jan-24 17:33N 37°27' E 024°57'0 0.0
2015-Jan-24 16:30N 37°27' E 024°57'0 0.0
2015-Jan-24 15:33N 37°27' E 024°57'1110.8
2015-Jan-24 14:34N 37°17' E 024°51'1414.3
2015-Jan-24 13:33N 37°07' E 025°05'6 6.4
2015-Jan-24 12:33N 37°09' E 025°13'8 7.8
2015-Jan-24 11:33N 37°06' E 025°22'2811.5
2015-Jan-24 09:08N 36°40' E 025°10'8 9.5
2015-Jan-24 08:16N 36°37' E 025°01'3 0.2
2015-Jan-23 18:06N 36°37' E 024°57'5 9.4
2015-Jan-23 17:33N 36°37' E 025°04'23 9.3
2015-Jan-23 15:05N 36°58' E 025°17'712.8
2015-Jan-23 14:33N 37°04' E 025°19'6 6.3
2015-Jan-23 13:33N 37°10' E 025°15'7 7.3
2015-Jan-23 12:33N 37°07' E 025°06'1414.0
2015-Jan-23 11:33N 37°20' E 025°01'9 8.7
2015-Jan-23 10:33N 37°29' E 024°57'32 7.3
2015-Jan-23 06:08N 37°40' E 024°19'12 1.2
2015-Jan-22 20:06N 37°43' E 024°04'39 4.6
2015-Jan-22 11:33N 37°31' E 024°51'6 6.1
2015-Jan-22 10:33N 37°26' E 024°57'9 8.7
2015-Jan-22 09:33N 37°19' E 024°52'2 0.1
2015-Jan-21 13:33N 37°17' E 024°50'1110.2
2015-Jan-21 12:31N 37°27' E 024°57'0 0.0
2015-Jan-21 11:33N 37°27' E 024°57'6 6.1
2015-Jan-21 10:33N 37°30' E 025°03'6 6.3
2015-Jan-21 09:33N 37°36' E 025°02'7 2.2
2015-Jan-21 06:33N 37°40' E 024°56'1313.1
2015-Jan-21 05:33N 37°32' E 025°09'1211.7
2015-Jan-21 04:33N 37°27' E 024°57'0 0.0
2015-Jan-21 03:32N 37°27' E 024°57'0 0.0
2015-Jan-21 02:27N 37°27' E 024°57'0 0.0
2015-Jan-21 01:32N 37°27' E 024°57'0 0.0
2015-Jan-21 00:31N 37°27' E 024°57'0 0.0
2015-Jan-20 23:33N 37°27' E 024°57'0 0.0
2015-Jan-20 22:33N 37°27' E 024°57'0 0.0
2015-Jan-20 21:33N 37°27' E 024°57'0 0.0
2015-Jan-20 20:31N 37°27' E 024°57'4 4.1
2015-Jan-20 19:31N 37°23' E 024°59'1614.9
2015-Jan-20 18:26N 37°08' E 025°06'4 4.5
2015-Jan-20 17:33N 37°07' E 025°02'  

Dump ship's entire track history